Terminal Aerodrome Forecast
Issued by NWS

Home | Current Version | Previous Version | Text Only | Print | Product List | Glossary On
Versions: 1 2 3 4 5 6 7 8 9 10 11 12
523
FTUS45 KRIW 171121
TAFJAC
TAF
KJAC 171121Z 1712/1812 01005KT P6SM VCFG SKC
     FM171400 VRB03KT 6SM BR VCFG SCT005
      TEMPO 1714/1718 1SM BR BKN005
     FM171900 00000KT P6SM SKC
      AMD LTD TO CLD VIS AND WIND=

USA.gov is the U.S. government's official web portal to all federal, state and local government web resources and services.